createdAt,value
2022-09-09T00:00:30.324Z,97.61
2022-09-09T00:01:29.880Z,97.65
2022-09-09T00:02:29.938Z,97.65
2022-09-09T00:03:29.966Z,97.75
2022-09-09T00:04:30.351Z,97.75
2022-09-09T00:05:30.594Z,97.75
2022-09-09T00:06:30.753Z,97.86
2022-09-09T00:07:29.879Z,97.91
2022-09-09T00:08:29.798Z,98.02
2022-09-09T00:09:29.823Z,98.11
2022-09-09T00:10:29.793Z,98.11
2022-09-09T00:11:31.559Z,98.22
2022-09-09T00:12:29.744Z,98.22
2022-09-09T00:13:29.803Z,98.22
2022-09-09T00:14:29.714Z,98.11
2022-09-09T00:15:29.838Z,98.11
2022-09-09T00:16:30.563Z,98.11
2022-09-09T00:17:29.754Z,98.11
2022-09-09T00:18:29.690Z,98.11
2022-09-09T00:19:29.703Z,98.11
2022-09-09T00:20:29.643Z,98.11
2022-09-09T00:21:29.665Z,98.11
2022-09-09T00:22:29.652Z,98.11
2022-09-09T00:23:29.665Z,98.11
2022-09-09T00:24:29.613Z,98.11
2022-09-09T00:25:29.626Z,98.11
2022-09-09T00:26:29.623Z,98.11
2022-09-09T00:27:30.321Z,98.11
2022-09-09T00:28:29.794Z,98.11
2022-09-09T00:29:29.604Z,98.11
2022-09-09T00:30:29.533Z,98.11
2022-09-09T00:31:29.609Z,98.22
2022-09-09T00:32:29.512Z,98.11
2022-09-09T00:33:30.249Z,98.22
2022-09-09T00:34:29.530Z,98.22
2022-09-09T00:35:29.499Z,98.22
2022-09-09T00:36:30.435Z,98.32
2022-09-09T00:37:29.875Z,98.32
2022-09-09T00:38:29.452Z,98.32
2022-09-09T00:39:29.884Z,98.32
2022-09-09T00:40:29.434Z,98.43
2022-09-09T00:41:29.426Z,98.43
2022-09-09T00:42:29.415Z,98.43
2022-09-09T00:43:29.404Z,98.43
2022-09-09T00:44:29.596Z,98.43
2022-09-09T00:45:30.124Z,98.43
2022-09-09T00:46:30.292Z,98.32
2022-09-09T00:47:29.413Z,98.32
2022-09-09T00:48:29.395Z,98.22
2022-09-09T00:49:29.441Z,98.22
2022-09-09T00:50:29.443Z,98.27
2022-09-09T00:51:29.342Z,98.16
2022-09-09T00:52:29.284Z,98.16
2022-09-09T00:53:29.302Z,98.06
2022-09-09T00:54:29.263Z,98.06
2022-09-09T00:55:30.144Z,98.06
2022-09-09T00:56:29.271Z,98.06
2022-09-09T00:57:29.296Z,97.96
2022-09-09T00:58:29.323Z,97.96
2022-09-09T00:59:29.223Z,98.00
2022-09-09T01:00:29.203Z,98.00
2022-09-09T01:01:29.317Z,98.00
2022-09-09T01:02:29.280Z,98.00
2022-09-09T01:03:29.223Z,97.90
2022-09-09T01:04:29.222Z,98.00
2022-09-09T01:05:29.164Z,98.00
2022-09-09T01:06:29.856Z,98.00
2022-09-09T01:07:30.024Z,98.00
2022-09-09T01:08:29.321Z,98.00
2022-09-09T01:09:29.122Z,98.05
2022-09-09T01:10:29.116Z,97.95
2022-09-09T01:11:29.893Z,97.95
2022-09-09T01:12:29.174Z,97.95
2022-09-09T01:13:29.083Z,98.05
2022-09-09T01:14:29.074Z,98.05
2022-09-09T01:15:29.082Z,98.15
2022-09-09T01:16:29.088Z,98.15
2022-09-09T01:17:29.074Z,98.15
2022-09-09T01:18:29.084Z,98.25
2022-09-09T01:19:29.010Z,98.25
2022-09-09T01:20:29.331Z,98.36
2022-09-09T01:21:29.023Z,98.36
2022-09-09T01:22:28.980Z,98.46
2022-09-09T01:23:28.985Z,98.46
2022-09-09T01:24:28.943Z,98.56
2022-09-09T01:25:28.952Z,98.56
2022-09-09T01:26:29.734Z,98.56
2022-09-09T01:27:29.658Z,98.56
2022-09-09T01:28:28.944Z,98.56
2022-09-09T01:29:28.911Z,98.46
2022-09-09T01:30:28.921Z,98.46
2022-09-09T01:31:28.892Z,98.46
2022-09-09T01:32:28.853Z,98.46
2022-09-09T01:33:29.312Z,98.46
2022-09-09T01:34:28.834Z,98.36
2022-09-09T01:35:28.826Z,98.36
2022-09-09T01:36:28.802Z,98.36
2022-09-09T01:37:28.812Z,98.36
2022-09-09T01:38:28.821Z,98.40
2022-09-09T01:39:29.608Z,98.40
2022-09-09T01:40:28.823Z,98.50
2022-09-09T01:41:28.763Z,98.50
2022-09-09T01:42:28.732Z,98.50
2022-09-09T01:43:28.742Z,98.50
2022-09-09T01:44:28.872Z,98.50
2022-09-09T01:45:28.724Z,98.50
2022-09-09T01:46:28.925Z,98.50
2022-09-09T01:47:29.514Z,98.50
2022-09-09T01:48:29.472Z,98.50
2022-09-09T01:49:28.682Z,98.50
2022-09-09T01:50:28.712Z,98.50
2022-09-09T01:51:28.690Z,98.50
2022-09-09T01:52:28.622Z,98.50
2022-09-09T01:53:28.633Z,98.40
2022-09-09T01:54:28.604Z,98.45
2022-09-09T01:55:28.760Z,98.45
2022-09-09T01:56:28.604Z,98.45
2022-09-09T01:57:28.582Z,98.45
2022-09-09T01:58:28.553Z,98.45
2022-09-09T01:59:28.552Z,98.45
2022-09-09T02:00:28.532Z,98.45
2022-09-09T02:01:28.591Z,98.45
2022-09-09T02:02:28.595Z,98.45
2022-09-09T02:03:28.525Z,98.45
2022-09-09T02:04:28.492Z,98.45
2022-09-09T02:05:28.825Z,98.45
2022-09-09T02:06:28.511Z,98.45
2022-09-09T02:07:29.381Z,98.45
2022-09-09T02:08:29.327Z,98.45
2022-09-09T02:09:29.192Z,98.55
2022-09-09T02:10:28.464Z,98.60
2022-09-09T02:11:28.444Z,98.55
2022-09-09T02:12:28.402Z,98.60
2022-09-09T02:13:28.465Z,98.60
2022-09-09T02:14:28.377Z,98.60
2022-09-09T02:15:28.414Z,98.55
2022-09-09T02:16:28.431Z,98.65
2022-09-09T02:17:28.350Z,98.65
2022-09-09T02:18:28.326Z,98.65
2022-09-09T02:19:28.400Z,98.75
2022-09-09T02:20:30.540Z,98.75
2022-09-09T02:21:29.332Z,98.75
2022-09-09T02:22:28.282Z,98.65
2022-09-09T02:23:28.352Z,98.65
2022-09-09T02:24:28.421Z,98.65
2022-09-09T02:25:28.261Z,98.65
2022-09-09T02:26:28.231Z,98.75
2022-09-09T02:27:28.241Z,98.75
2022-09-09T02:28:29.061Z,98.86
2022-09-09T02:29:28.245Z,98.86
2022-09-09T02:30:28.305Z,98.86
2022-09-09T02:31:28.192Z,98.86
2022-09-09T02:32:28.162Z,98.90
2022-09-09T02:33:28.172Z,98.90
2022-09-09T02:34:28.150Z,98.90
2022-09-09T02:35:28.220Z,98.90
2022-09-09T02:36:28.133Z,98.90
2022-09-09T02:37:28.121Z,98.90
2022-09-09T02:38:28.165Z,98.80
2022-09-09T02:39:28.102Z,98.90
2022-09-09T02:40:28.087Z,98.90
2022-09-09T02:41:28.074Z,98.90
2022-09-09T02:42:28.054Z,98.90
2022-09-09T02:43:28.053Z,98.90
2022-09-09T02:44:28.032Z,98.90
2022-09-09T02:45:28.043Z,98.96
2022-09-09T02:46:28.030Z,99.01
2022-09-09T02:47:28.007Z,99.01
2022-09-09T02:48:28.852Z,99.01
2022-09-09T02:49:28.291Z,99.01
2022-09-09T02:50:27.973Z,98.90
2022-09-09T02:51:27.961Z,98.90
2022-09-09T02:52:27.982Z,98.90
2022-09-09T02:53:27.932Z,99.01
2022-09-09T02:54:27.933Z,99.01
2022-09-09T02:55:27.905Z,98.90
2022-09-09T02:56:27.915Z,98.90
2022-09-09T02:57:28.141Z,99.01
2022-09-09T02:58:27.893Z,98.90
2022-09-09T02:59:27.861Z,98.90
2022-09-09T03:00:27.861Z,99.01
2022-09-09T03:01:27.920Z,99.01
2022-09-09T03:02:27.905Z,99.01
2022-09-09T03:03:27.822Z,99.01
2022-09-09T03:04:27.821Z,99.01
2022-09-09T03:05:27.791Z,99.01
2022-09-09T03:06:27.795Z,99.11
2022-09-09T03:07:27.780Z,99.11
2022-09-09T03:08:27.911Z,99.11
2022-09-09T03:09:27.770Z,99.11
2022-09-09T03:10:27.923Z,99.11
2022-09-09T03:11:27.740Z,99.11
2022-09-09T03:12:27.736Z,99.16
2022-09-09T03:13:27.711Z,99.16
2022-09-09T03:14:27.708Z,99.16
2022-09-09T03:15:27.701Z,99.16
2022-09-09T03:16:27.723Z,99.16
2022-09-09T03:17:27.653Z,99.06
2022-09-09T03:18:27.660Z,99.06
2022-09-09T03:19:27.641Z,99.06
2022-09-09T03:20:27.641Z,99.06
2022-09-09T03:21:27.624Z,99.06
2022-09-09T03:22:27.661Z,99.06
2022-09-09T03:23:27.591Z,98.96
2022-09-09T03:24:27.591Z,98.96
2022-09-09T03:25:27.574Z,98.96
2022-09-09T03:26:27.573Z,99.01
2022-09-09T03:27:27.551Z,99.01
2022-09-09T03:28:27.550Z,98.90
2022-09-09T03:29:27.539Z,99.01
2022-09-09T03:30:28.324Z,98.90
2022-09-09T03:31:27.563Z,98.90
2022-09-09T03:32:27.504Z,99.01
2022-09-09T03:33:27.492Z,99.01
2022-09-09T03:34:27.500Z,99.01
2022-09-09T03:35:27.462Z,99.06
2022-09-09T03:36:27.454Z,99.06
2022-09-09T03:37:27.430Z,99.06
2022-09-09T03:38:27.432Z,99.16
2022-09-09T03:39:27.430Z,99.16
2022-09-09T03:40:27.426Z,99.16
2022-09-09T03:41:27.382Z,99.16
2022-09-09T03:42:27.387Z,99.27
2022-09-09T03:43:27.361Z,99.16
2022-09-09T03:44:27.370Z,99.27
2022-09-09T03:45:27.393Z,99.27
2022-09-09T03:46:27.370Z,99.27
2022-09-09T03:47:27.324Z,99.27
2022-09-09T03:48:27.330Z,99.27
2022-09-09T03:49:27.291Z,99.27
2022-09-09T03:50:27.291Z,99.37
2022-09-09T03:51:27.273Z,99.37
2022-09-09T03:52:27.278Z,99.37
2022-09-09T03:53:27.248Z,99.32
2022-09-09T03:54:27.239Z,99.32
2022-09-09T03:55:27.216Z,99.32
2022-09-09T03:56:27.231Z,99.43
2022-09-09T03:57:27.201Z,99.43
2022-09-09T03:58:27.200Z,99.43
2022-09-09T03:59:27.172Z,99.43
2022-09-09T04:00:27.172Z,99.43
2022-09-09T04:01:27.203Z,99.43
2022-09-09T04:02:27.247Z,99.43
2022-09-09T04:03:28.218Z,99.43
2022-09-09T04:04:27.132Z,99.27
2022-09-09T04:05:27.100Z,99.27
2022-09-09T04:06:27.121Z,99.27
2022-09-09T04:07:27.082Z,99.27
2022-09-09T04:08:27.081Z,99.27
2022-09-09T04:09:27.062Z,99.27
2022-09-09T04:10:27.095Z,99.18
2022-09-09T04:11:27.082Z,99.18
2022-09-09T04:12:27.080Z,99.18
2022-09-09T04:13:27.029Z,99.18
2022-09-09T04:14:27.020Z,99.07
2022-09-09T04:15:26.998Z,99.07
2022-09-09T04:16:27.086Z,99.07
2022-09-09T04:17:26.972Z,98.97
2022-09-09T04:18:26.993Z,98.97
2022-09-09T04:19:26.941Z,98.97
2022-09-09T04:20:26.951Z,98.86
2022-09-09T04:21:26.975Z,98.86
2022-09-09T04:22:26.935Z,98.86
2022-09-09T04:23:26.902Z,98.86
2022-09-09T04:24:26.901Z,98.77
2022-09-09T04:25:26.872Z,98.77
2022-09-09T04:26:26.891Z,98.72
2022-09-09T04:27:26.863Z,98.72
2022-09-09T04:28:26.860Z,98.72
2022-09-09T04:29:26.840Z,98.72
2022-09-09T04:30:26.830Z,98.72
2022-09-09T04:31:27.653Z,98.61
2022-09-09T04:32:27.532Z,98.61
2022-09-09T04:33:26.797Z,98.61
2022-09-09T04:34:26.792Z,98.52
2022-09-09T04:35:26.761Z,98.52
2022-09-09T04:36:26.771Z,98.52
2022-09-09T04:37:26.770Z,98.36
2022-09-09T04:38:26.747Z,98.36
2022-09-09T04:39:26.729Z,98.27
2022-09-09T04:40:26.727Z,98.16
2022-09-09T04:41:26.700Z,98.16
2022-09-09T04:42:26.700Z,98.16
2022-09-09T04:43:26.680Z,98.16
2022-09-09T04:44:26.688Z,98.06
2022-09-09T04:45:26.669Z,98.06
2022-09-09T04:46:26.662Z,98.06
2022-09-09T04:47:26.638Z,98.06
2022-09-09T04:48:26.659Z,97.96
2022-09-09T04:49:26.616Z,97.96
2022-09-09T04:50:26.611Z,97.96
2022-09-09T04:51:27.060Z,97.96
2022-09-09T04:52:26.670Z,97.96
2022-09-09T04:53:26.569Z,97.81
2022-09-09T04:54:27.089Z,97.75
2022-09-09T04:55:26.545Z,97.71
2022-09-09T04:56:26.540Z,97.75
2022-09-09T04:57:26.520Z,97.61
2022-09-09T04:58:27.250Z,97.61
2022-09-09T04:59:26.519Z,97.61
2022-09-09T05:00:26.501Z,97.61
2022-09-09T05:01:26.501Z,97.61
2022-09-09T05:02:29.699Z,97.61
2022-09-09T05:03:27.455Z,97.71
2022-09-09T05:04:26.459Z,97.61
2022-09-09T05:05:26.430Z,97.61
2022-09-09T05:06:26.439Z,97.50
2022-09-09T05:07:26.403Z,97.50
2022-09-09T05:08:26.408Z,97.50
2022-09-09T05:09:26.379Z,97.50
2022-09-09T05:10:26.410Z,97.50
2022-09-09T05:11:27.109Z,97.50
2022-09-09T05:12:26.398Z,97.50
2022-09-09T05:13:26.352Z,97.50
2022-09-09T05:14:26.356Z,97.46
2022-09-09T05:15:26.310Z,97.46
2022-09-09T05:16:26.383Z,97.36
2022-09-09T05:17:26.300Z,97.36
2022-09-09T05:18:26.297Z,97.36
2022-09-09T05:19:26.271Z,97.36
2022-09-09T05:20:26.288Z,97.36
2022-09-09T05:21:26.305Z,97.36
2022-09-09T05:22:26.282Z,97.25
2022-09-09T05:23:26.222Z,97.25
2022-09-09T05:24:26.238Z,97.16
2022-09-09T05:25:26.203Z,97.05
2022-09-09T05:26:26.199Z,96.84
2022-09-09T05:27:26.212Z,96.84
2022-09-09T05:28:26.190Z,96.80
2022-09-09T05:29:26.179Z,96.80
2022-09-09T05:30:26.159Z,97.31
2022-09-09T05:31:27.218Z,97.57
2022-09-09T05:32:26.160Z,97.88
2022-09-09T05:33:26.133Z,97.98
2022-09-09T05:34:26.110Z,98.14
2022-09-09T05:35:26.090Z,98.03
2022-09-09T05:36:26.105Z,97.83
2022-09-09T05:37:26.089Z,97.73
2022-09-09T05:38:28.780Z,97.69
2022-09-09T05:39:26.052Z,97.58
2022-09-09T05:40:26.040Z,97.58
2022-09-09T05:41:26.024Z,97.44
2022-09-09T05:42:26.036Z,97.13
2022-09-09T05:43:26.094Z,97.03
2022-09-09T05:44:26.030Z,96.78
2022-09-09T05:45:26.042Z,96.58
2022-09-09T05:46:26.191Z,96.37
2022-09-09T05:47:25.959Z,96.12
2022-09-09T05:48:25.962Z,95.21
2022-09-09T05:49:25.949Z,94.80
2022-09-09T05:50:29.753Z,94.90
2022-09-09T05:51:26.920Z,94.56
2022-09-09T05:52:25.919Z,94.66
2022-09-09T05:53:25.960Z,94.45
2022-09-09T05:54:26.012Z,94.21
2022-09-09T05:55:25.887Z,93.80
2022-09-09T05:56:25.878Z,93.40
2022-09-09T05:57:25.859Z,92.94
2022-09-09T05:58:25.862Z,92.84
2022-09-09T05:59:25.937Z,92.74
2022-09-09T06:00:25.926Z,92.54
2022-09-09T06:01:25.813Z,92.33
2022-09-09T06:02:25.958Z,91.99
2022-09-09T06:03:25.794Z,91.58
2022-09-09T06:04:25.802Z,91.28
2022-09-09T06:05:25.788Z,91.58
2022-09-09T06:06:25.789Z,91.58
2022-09-09T06:07:25.749Z,90.88
2022-09-09T06:08:25.739Z,89.51
2022-09-09T06:09:25.723Z,90.53
2022-09-09T06:10:25.718Z,90.22
2022-09-09T06:11:25.777Z,88.40
2022-09-09T06:12:25.699Z,88.40
2022-09-09T06:13:25.679Z,88.80
2022-09-09T06:14:25.671Z,89.41
2022-09-09T06:15:25.650Z,89.92
2022-09-09T06:16:25.719Z,89.81
2022-09-09T06:17:25.621Z,90.02
2022-09-09T06:18:25.629Z,89.81
2022-09-09T06:19:25.609Z,89.21
2022-09-09T06:20:25.600Z,88.49
2022-09-09T06:21:25.580Z,88.49
2022-09-09T06:22:25.625Z,88.90
2022-09-09T06:23:25.561Z,88.15
2022-09-09T06:24:25.592Z,88.86
2022-09-09T06:25:25.757Z,89.47
2022-09-09T06:26:25.530Z,89.02
2022-09-09T06:27:25.531Z,88.82
2022-09-09T06:28:25.539Z,88.01
2022-09-09T06:29:25.510Z,88.48
2022-09-09T06:30:25.581Z,87.66
2022-09-09T06:31:29.718Z,87.56
2022-09-09T06:32:25.462Z,86.35
2022-09-09T06:33:25.439Z,86.85
2022-09-09T06:34:25.443Z,86.55
2022-09-09T06:35:25.528Z,86.96
2022-09-09T06:36:25.439Z,87.05
2022-09-09T06:37:25.400Z,86.55
2022-09-09T06:38:25.391Z,86.25
2022-09-09T06:39:25.373Z,86.15
2022-09-09T06:40:25.418Z,85.54
2022-09-09T06:41:25.360Z,86.15
2022-09-09T06:42:25.371Z,86.25
2022-09-09T06:43:25.668Z,86.25
2022-09-09T06:44:25.330Z,86.25
2022-09-09T06:45:25.310Z,86.65
2022-09-09T06:46:25.335Z,86.96
2022-09-09T06:47:25.300Z,86.96
2022-09-09T06:48:25.322Z,86.76
2022-09-09T06:49:25.346Z,84.83
2022-09-09T06:50:25.277Z,84.53
2022-09-09T06:51:25.240Z,85.94
2022-09-09T06:52:25.260Z,85.39
2022-09-09T06:53:25.230Z,85.60
2022-09-09T06:54:25.220Z,84.69
2022-09-09T06:55:25.205Z,84.39
2022-09-09T06:56:25.202Z,85.30
2022-09-09T06:57:36.871Z,85.25
2022-09-09T06:58:26.208Z,84.65
2022-09-09T06:59:25.161Z,83.94
2022-09-09T07:00:25.190Z,84.61
2022-09-09T07:01:25.144Z,84.71
2022-09-09T07:02:25.155Z,83.19
2022-09-09T07:03:25.151Z,82.89
2022-09-09T07:04:25.090Z,83.40
2022-09-09T07:05:25.100Z,83.50
2022-09-09T07:06:25.086Z,83.70
2022-09-09T07:07:25.923Z,83.15
2022-09-09T07:08:25.833Z,83.05
2022-09-09T07:09:26.242Z,82.14
2022-09-09T07:10:25.105Z,83.26
2022-09-09T07:11:25.087Z,82.65
2022-09-09T07:12:25.038Z,83.15
2022-09-09T07:13:25.011Z,82.65
2022-09-09T07:14:24.991Z,82.75
2022-09-09T07:15:24.996Z,81.74
2022-09-09T07:16:24.993Z,82.14
2022-09-09T07:17:24.971Z,82.01
2022-09-09T07:18:24.952Z,81.84
2022-09-09T07:19:24.950Z,82.14
2022-09-09T07:20:24.930Z,82.35
2022-09-09T07:21:24.940Z,82.85
2022-09-09T07:22:24.929Z,83.12
2022-09-09T07:23:24.891Z,80.29
2022-09-09T07:24:24.874Z,81.60
2022-09-09T07:25:24.913Z,80.99
2022-09-09T07:26:24.879Z,81.80
2022-09-09T07:27:24.851Z,81.50
2022-09-09T07:28:24.852Z,81.44
2022-09-09T07:29:25.602Z,81.34
2022-09-09T07:30:27.827Z,81.84
2022-09-09T07:31:24.892Z,81.54
2022-09-09T07:32:24.792Z,81.90
2022-09-09T07:33:24.883Z,81.20
2022-09-09T07:34:24.994Z,80.79
2022-09-09T07:35:24.771Z,81.05
2022-09-09T07:36:24.771Z,80.96
2022-09-09T07:37:24.751Z,78.19
2022-09-09T07:38:24.832Z,78.36
2022-09-09T07:39:24.736Z,78.16
2022-09-09T07:40:24.702Z,78.12
2022-09-09T07:41:24.702Z,78.63
2022-09-09T07:42:24.702Z,76.91
2022-09-09T07:43:24.683Z,77.28
2022-09-09T07:44:24.852Z,77.08
2022-09-09T07:45:24.676Z,77.08
2022-09-09T07:46:24.694Z,76.20
2022-09-09T07:47:24.642Z,77.11
2022-09-09T07:48:24.613Z,77.62
2022-09-09T07:49:30.907Z,77.62
2022-09-09T07:50:26.408Z,77.42
2022-09-09T07:51:24.641Z,77.01
2022-09-09T07:52:24.564Z,76.71
2022-09-09T07:53:24.573Z,76.71
2022-09-09T07:54:24.593Z,76.81
2022-09-09T07:55:24.545Z,76.10
2022-09-09T07:56:24.534Z,76.61
2022-09-09T07:57:24.521Z,76.71
2022-09-09T07:58:24.502Z,75.90
2022-09-09T07:59:24.513Z,76.00
2022-09-09T08:00:24.493Z,76.00
2022-09-09T08:01:24.506Z,75.40
2022-09-09T08:02:24.457Z,75.40
2022-09-09T08:03:24.501Z,75.16
2022-09-09T08:04:24.452Z,75.67
2022-09-09T08:05:24.444Z,75.56
2022-09-09T08:06:24.413Z,73.75
2022-09-09T08:07:24.404Z,74.15
2022-09-09T08:08:24.380Z,73.48
2022-09-09T08:09:24.396Z,74.39
2022-09-09T08:10:24.514Z,73.79
2022-09-09T08:11:25.158Z,74.52
2022-09-09T08:12:24.345Z,74.93
2022-09-09T08:13:24.345Z,75.23
2022-09-09T08:14:24.321Z,73.88
2022-09-09T08:15:24.333Z,75.40
2022-09-09T08:16:24.340Z,74.08
2022-09-09T08:17:24.335Z,74.79
2022-09-09T08:18:24.273Z,74.26
2022-09-09T08:19:24.274Z,73.55
2022-09-09T08:20:24.275Z,73.05
2022-09-09T08:21:24.264Z,73.75
2022-09-09T08:22:24.225Z,73.14
2022-09-09T08:23:24.225Z,73.05
2022-09-09T08:24:24.218Z,73.45
2022-09-09T08:25:24.207Z,72.54
2022-09-09T08:26:24.236Z,72.31
2022-09-09T08:27:24.191Z,72.61
2022-09-09T08:28:24.174Z,72.47
2022-09-09T08:29:24.156Z,70.16
2022-09-09T08:30:24.145Z,70.46
2022-09-09T08:32:24.115Z,69.85
2022-09-09T08:33:24.119Z,70.36
2022-09-09T08:34:24.084Z,68.55
2022-09-09T08:35:24.099Z,70.06
2022-09-09T08:36:24.097Z,70.36
2022-09-09T08:37:24.106Z,69.45
2022-09-09T08:38:24.065Z,68.04
2022-09-09T08:39:24.054Z,68.75
2022-09-09T08:40:24.021Z,69.56
2022-09-09T08:41:24.029Z,68.15
2022-09-09T08:42:24.027Z,68.38
2022-09-09T08:43:24.032Z,68.98
2022-09-09T08:44:23.976Z,68.38
2022-09-09T08:45:23.983Z,68.91
2022-09-09T08:46:24.029Z,70.62
2022-09-09T08:47:23.955Z,69.49
2022-09-09T08:48:23.945Z,69.52
2022-09-09T08:49:23.953Z,68.91
2022-09-09T08:50:23.914Z,69.32
2022-09-09T08:51:23.913Z,69.32
2022-09-09T08:52:23.898Z,69.42
2022-09-09T08:53:23.900Z,68.18
2022-09-09T08:54:48.517Z,68.28
2022-09-09T08:55:24.863Z,67.84
2022-09-09T08:56:23.845Z,68.04
2022-09-09T08:57:23.844Z,67.91
2022-09-09T08:58:23.821Z,66.97
2022-09-09T08:59:23.827Z,66.87
2022-09-09T09:00:23.796Z,66.84
2022-09-09T09:01:23.854Z,64.00
2022-09-09T09:02:23.775Z,64.27
2022-09-09T09:03:23.785Z,64.34
2022-09-09T09:04:23.779Z,62.70
2022-09-09T09:05:23.766Z,62.07
2022-09-09T09:06:23.728Z,61.47
2022-09-09T09:07:23.736Z,61.57
2022-09-09T09:08:23.707Z,62.67
2022-09-09T09:09:23.729Z,61.27
2022-09-09T09:10:41.202Z,61.27
2022-09-09T09:11:25.536Z,60.86
2022-09-09T09:12:23.667Z,60.29
2022-09-09T09:13:23.671Z,62.30
2022-09-09T09:14:23.689Z,61.40
2022-09-09T09:15:23.657Z,61.22
2022-09-09T09:16:23.628Z,61.35
2022-09-09T09:17:23.639Z,62.56
2022-09-09T09:18:23.604Z,63.06
2022-09-09T09:19:23.601Z,62.39
2022-09-09T09:20:23.586Z,62.99
2022-09-09T09:21:23.590Z,62.69
2022-09-09T09:22:23.602Z,63.32
2022-09-09T09:23:23.554Z,64.33
2022-09-09T09:24:23.529Z,64.33
2022-09-09T09:25:23.537Z,62.82
2022-09-09T09:26:23.513Z,63.79
2022-09-09T09:27:23.528Z,63.19
2022-09-09T09:28:23.488Z,63.09
2022-09-09T09:29:23.487Z,62.16
2022-09-09T09:30:29.019Z,61.96
2022-09-09T09:31:24.503Z,62.13
2022-09-09T09:32:23.450Z,61.83
2022-09-09T09:33:23.449Z,62.33
2022-09-09T09:34:23.428Z,62.83
2022-09-09T09:35:23.419Z,61.72
2022-09-09T09:36:23.407Z,61.46
2022-09-09T09:37:23.412Z,61.79
2022-09-09T09:40:24.357Z,62.92
2022-09-09T09:41:23.358Z,63.22
2022-09-09T09:42:24.049Z,63.09
2022-09-09T09:43:23.338Z,63.19
2022-09-09T09:44:23.310Z,63.70
2022-09-09T09:45:23.316Z,64.40
2022-09-09T09:46:23.320Z,64.30
2022-09-09T09:47:23.287Z,64.10
2022-09-09T09:48:23.269Z,64.60
2022-09-09T09:49:24.084Z,65.10
2022-09-09T09:50:23.252Z,67.85
2022-09-09T09:51:23.251Z,67.35
2022-09-09T09:52:23.479Z,66.54
2022-09-09T09:53:23.230Z,66.84
2022-09-09T09:54:23.210Z,66.44
2022-09-09T09:55:23.209Z,67.65
2022-09-09T09:56:23.192Z,68.55
2022-09-09T09:57:23.208Z,68.95
2022-09-09T09:58:23.162Z,68.55
2022-09-09T09:59:23.719Z,69.15
2022-09-09T10:00:24.141Z,68.55
2022-09-09T10:01:23.175Z,67.24
2022-09-09T10:02:23.111Z,67.74
2022-09-09T10:03:23.190Z,67.85
2022-09-09T10:04:23.135Z,67.68
2022-09-09T10:05:26.776Z,68.85
2022-09-09T10:06:23.070Z,69.45
2022-09-09T10:07:23.082Z,66.54
2022-09-09T10:08:23.052Z,66.84
2022-09-09T10:09:23.055Z,67.91
2022-09-09T10:10:23.038Z,66.81
2022-09-09T10:11:23.028Z,66.74
2022-09-09T10:12:23.779Z,65.64
2022-09-09T10:13:23.020Z,65.03
2022-09-09T10:14:22.981Z,66.37
2022-09-09T10:15:23.010Z,66.27
2022-09-09T10:16:22.989Z,67.07
2022-09-09T10:17:22.976Z,66.40
2022-09-09T10:18:22.944Z,67.94
2022-09-09T10:19:22.943Z,68.75
2022-09-09T10:20:22.919Z,69.25
2022-09-09T10:21:22.925Z,68.85
2022-09-09T10:22:22.906Z,67.54
2022-09-09T10:23:22.913Z,67.34
2022-09-09T10:24:22.899Z,67.41
2022-09-09T10:25:23.071Z,68.08
2022-09-09T10:26:23.743Z,66.64
2022-09-09T10:27:22.871Z,66.44
2022-09-09T10:28:22.821Z,66.74
2022-09-09T10:29:22.836Z,67.14
2022-09-09T10:30:22.804Z,66.61
2022-09-09T10:31:22.886Z,65.47
2022-09-09T10:32:22.792Z,64.77
2022-09-09T10:33:22.813Z,64.87
2022-09-09T10:34:23.715Z,66.47
2022-09-09T10:35:22.809Z,64.77
2022-09-09T10:36:22.768Z,65.97
2022-09-09T10:37:22.749Z,62.73
2022-09-09T10:38:22.726Z,63.23
2022-09-09T10:39:22.720Z,63.81
2022-09-09T10:40:22.729Z,62.40
2022-09-09T10:41:22.699Z,63.67
2022-09-09T10:42:22.673Z,62.37
2022-09-09T10:43:22.682Z,62.14
2022-09-09T10:44:22.655Z,59.46
2022-09-09T10:45:22.663Z,59.56
2022-09-09T10:46:22.697Z,59.46
2022-09-09T10:47:27.948Z,59.77
2022-09-09T10:48:23.653Z,60.57
2022-09-09T10:49:23.320Z,60.06
2022-09-09T10:50:22.589Z,60.57
2022-09-09T10:51:22.637Z,60.53
2022-09-09T10:52:22.578Z,60.14
2022-09-09T10:53:22.574Z,58.30
2022-09-09T10:54:22.543Z,56.33
2022-09-09T10:55:25.600Z,57.23
2022-09-09T10:56:23.517Z,58.70
2022-09-09T10:57:22.522Z,59.61
2022-09-09T10:58:22.504Z,58.68
2022-09-09T10:59:22.537Z,57.37
2022-09-09T11:00:22.485Z,56.52
2022-09-09T11:01:22.510Z,55.32
2022-09-09T11:02:22.472Z,56.22
2022-09-09T11:03:22.467Z,57.39
2022-09-09T11:04:22.474Z,55.89
2022-09-09T11:05:22.436Z,54.49
2022-09-09T11:06:22.454Z,54.17
2022-09-09T11:07:22.749Z,56.07
2022-09-09T11:09:22.386Z,53.97
2022-09-09T11:10:22.365Z,52.29
2022-09-09T11:11:22.369Z,54.02
2022-09-09T11:12:22.354Z,54.42
2022-09-09T11:13:23.298Z,53.85
2022-09-09T11:14:22.463Z,54.05
2022-09-09T11:15:23.106Z,55.37
2022-09-09T11:16:22.402Z,54.07
2022-09-09T11:17:22.293Z,54.87
2022-09-09T11:18:22.287Z,56.98
2022-09-09T11:19:22.268Z,56.48
2022-09-09T11:20:22.269Z,56.95
2022-09-09T11:21:22.268Z,55.24
2022-09-09T11:22:22.245Z,55.82
2022-09-09T11:23:22.956Z,55.12
2022-09-09T11:24:22.235Z,55.79
2022-09-09T11:25:22.665Z,55.19
2022-09-09T11:26:22.215Z,54.17
2022-09-09T11:27:22.177Z,53.24
2022-09-09T11:28:22.232Z,52.67
2022-09-09T11:29:22.160Z,52.77
2022-09-09T11:31:23.290Z,54.77
2022-09-09T11:32:22.136Z,53.77
2022-09-09T11:33:22.132Z,53.14
2022-09-09T11:34:22.129Z,53.94
2022-09-09T11:35:22.205Z,51.64
2022-09-09T11:36:22.087Z,51.47
2022-09-09T11:37:22.067Z,53.39
2022-09-09T11:38:22.096Z,52.52
2022-09-09T11:39:22.047Z,54.22
2022-09-09T11:40:22.047Z,53.42
2022-09-09T11:41:22.145Z,55.44
2022-09-09T11:42:22.023Z,53.44
2022-09-09T11:43:22.007Z,54.44
2022-09-09T11:44:22.009Z,54.14
2022-09-09T11:45:22.284Z,55.55
2022-09-09T11:46:22.036Z,54.55
2022-09-09T11:47:21.956Z,54.35
2022-09-09T11:48:21.962Z,54.22
2022-09-09T11:49:21.966Z,53.19
2022-09-09T11:50:21.947Z,52.27
2022-09-09T11:51:21.910Z,53.77
2022-09-09T11:52:21.919Z,53.34
2022-09-09T11:53:21.906Z,52.22
2022-09-09T11:54:21.953Z,51.82
2022-09-09T11:55:22.598Z,52.99
2022-09-09T11:56:22.751Z,50.40
2022-09-09T11:57:21.869Z,54.49
2022-09-09T11:58:22.849Z,50.52
2022-09-09T11:59:22.834Z,51.34
2022-09-09T12:00:21.855Z,53.14
2022-09-09T12:01:22.180Z,51.97
2022-09-09T12:02:21.950Z,53.17
2022-09-09T12:03:21.840Z,54.37
2022-09-09T12:04:22.448Z,52.87
2022-09-09T12:05:21.852Z,52.37
2022-09-09T12:06:21.772Z,51.27
2022-09-09T12:07:22.473Z,52.67
2022-09-09T12:08:21.750Z,51.37
2022-09-09T12:09:21.740Z,52.07
2022-09-09T12:10:21.733Z,52.57
2022-09-09T12:11:21.700Z,52.97
2022-09-09T12:12:21.716Z,52.87
2022-09-09T12:13:21.750Z,53.57
2022-09-09T12:14:21.782Z,52.84
2022-09-09T12:15:22.483Z,51.67
2022-09-09T12:16:22.392Z,51.27
2022-09-09T12:17:21.795Z,51.69
2022-09-09T12:18:21.652Z,52.89
2022-09-09T12:19:24.773Z,53.99
2022-09-09T12:20:21.622Z,52.59
2022-09-09T12:21:21.597Z,52.80
2022-09-09T12:22:21.607Z,53.92
2022-09-09T12:23:21.571Z,55.49
2022-09-09T12:24:22.371Z,54.60
2022-09-09T12:25:23.347Z,53.22
2022-09-09T12:26:21.542Z,56.62
2022-09-09T12:27:21.552Z,56.77
2022-09-09T12:28:21.627Z,62.44
2022-09-09T12:29:22.403Z,64.45
2022-09-09T12:30:21.514Z,67.05
2022-09-09T12:31:21.482Z,69.46
2022-09-09T12:32:21.491Z,70.26
2022-09-09T12:33:21.993Z,70.06
2022-09-09T12:34:21.587Z,66.28
2022-09-09T12:35:22.334Z,67.11
2022-09-09T12:36:21.503Z,65.71
2022-09-09T12:37:22.156Z,65.81
2022-09-09T12:38:21.516Z,64.31
2022-09-09T12:39:21.396Z,64.37
2022-09-09T12:40:21.413Z,62.40
2022-09-09T12:41:21.363Z,64.14
2022-09-09T12:42:21.433Z,65.44
2022-09-09T12:43:21.541Z,65.11
2022-09-09T12:44:21.549Z,63.31
2022-09-09T12:45:22.145Z,63.67
2022-09-09T12:46:22.152Z,64.58
2022-09-09T12:47:21.301Z,65.45
2022-09-09T12:48:21.303Z,65.01
2022-09-09T12:49:21.293Z,63.48
2022-09-09T12:50:21.390Z,62.25
2022-09-09T12:51:22.086Z,59.85
2022-09-09T12:52:21.984Z,60.92
2022-09-09T12:53:26.062Z,59.39
2022-09-09T12:54:23.075Z,60.19
2022-09-09T12:55:21.414Z,60.79
2022-09-09T12:56:22.113Z,60.19
2022-09-09T12:57:22.023Z,59.12